METAR Data

Data at: 2149 UTC 01 Dec 2021

METAR for:KIJD (Willimantic/Windhan, CT, US)
Text:KIJD 012052Z AUTO 00000KT 10SM CLR 07/M04 A3011 RMK AO2 SLP198 T00671044 50001
Temperature: 6.7°C ( 44°F)
Dewpoint: -4.4°C ( 24°F) [RH = 45%]
Pressure (altimeter):30.11 inches Hg (1019.7 mb) [Sea level pressure: 1019.8 mb]
Winds:calm
Visibility:10 or more sm (16+ km)
Ceiling:at least 12,000 feet AGL
Clouds:sky clear below 12,000 feet AGL
QC Flag:automated observation with no human augmentation